Time;durP1;ratioP1;P1;durP2;ratioP2;P2;SDS_P1;SDS_P2;PMS_P1;PMS_P2;Temp;Humidity;BMP_temperature;BMP_pressure;BME280_temperature;BME280_humidity;BME280_pressure;Samples;Min_cycle;Max_cycle;Signal;HPM_P1;HPM_P2
2022/09/09 00:02:15;;;;;;;14.63;6.68;;;;;;;15.09;100.00;98463.56;4340864;33;20999;-68
2022/09/09 00:04:45;;;;;;;12.45;6.53;;;;;;;15.35;100.00;98449.59;4341015;33;20074;-68
2022/09/09 00:07:42;;;;;;;8.70;5.40;;;;;;;14.94;100.00;98423.13;4337782;33;20072;-69
2022/09/09 00:10:42;;;;;;;14.95;6.93;;;;;;;15.10;100.00;98421.78;4379373;32;20060;-69
2022/09/09 00:13:43;;;;;;;16.10;6.75;;;;;;;15.32;100.00;98423.09;4383307;32;20046;-69
2022/09/09 00:16:22;;;;;;;11.18;6.32;;;;;;;15.84;100.00;98450.19;4382036;32;20042;-69
2022/09/09 00:19:36;;;;;;;10.57;6.15;;;;;;;15.64;100.00;98457.56;4410791;32;20057;-70
2022/09/09 00:22:08;;;;;;;16.83;7.65;;;;;;;15.53;100.00;98424.38;4362125;32;20461;-70
2022/09/09 00:25:23;;;;;;;13.32;6.35;;;;;;;15.06;100.00;98382.81;4420828;32;20050;-70
2022/09/09 00:27:50;;;;;;;14.93;7.18;;;;;;;15.79;100.00;98459.25;4439737;32;20033;-69
2022/09/09 00:30:25;;;;;;;15.48;7.20;;;;;;;15.44;100.00;98453.28;4466697;32;20075;-74
2022/09/09 00:32:59;;;;;;;15.90;7.03;;;;;;;15.73;100.00;98450.38;4467624;32;20889;-69
2022/09/09 00:35:39;;;;;;;15.75;6.55;;;;;;;15.64;100.00;98416.06;4466973;32;20063;-69
2022/09/09 00:38:19;;;;;;;14.60;7.70;;;;;;;15.62;100.00;98410.94;4447097;32;20067;-69
2022/09/09 00:40:49;;;;;;;15.13;7.93;;;;;;;15.69;100.00;98453.97;4449498;32;20046;-68
2022/09/09 00:43:23;;;;;;;8.52;6.10;;;;;;;15.26;100.00;98420.44;4448695;32;20532;-69
2022/09/09 00:45:59;;;;;;;10.95;7.22;;;;;;;15.33;100.00;98446.41;4444695;32;20087;-70
2022/09/09 00:48:39;;;;;;;15.52;7.53;;;;;;;15.65;100.00;98447.50;4403462;32;20061;-69
2022/09/09 00:51:17;;;;;;;12.35;6.22;;;;;;;15.50;100.00;98419.53;4403401;32;20027;-68
2022/09/09 00:54:21;;;;;;;12.50;6.82;;;;;;;15.45;100.00;98452.19;4387532;32;20065;-69
2022/09/09 00:57:05;;;;;;;16.10;7.28;;;;;;;15.22;100.00;98414.03;4365569;32;20032;-73
2022/09/09 00:59:48;;;;;;;16.15;6.90;;;;;;;15.73;100.00;98449.53;4358073;32;20047;-69
2022/09/09 01:02:27;;;;;;;14.65;6.43;;;;;;;15.88;100.00;98457.47;4357140;32;20053;-69
2022/09/09 01:05:01;;;;;;;21.55;7.68;;;;;;;15.65;100.00;98425.81;4341671;33;20778;-69
2022/09/09 01:07:27;;;;;;;11.45;6.82;;;;;;;15.42;100.00;98422.94;4349107;32;20035;-69
2022/09/09 01:10:12;;;;;;;12.37;6.80;;;;;;;15.01;100.00;98418.97;4356846;32;20031;-69
2022/09/09 01:12:43;;;;;;;11.12;6.18;;;;;;;15.39;100.00;98434.38;4357196;32;20044;-69
2022/09/09 01:15:17;;;;;;;16.25;7.25;;;;;;;15.45;100.00;98449.47;4326737;33;20028;-68
2022/09/09 01:17:44;;;;;;;13.23;7.03;;;;;;;15.26;100.00;98431.28;4299478;33;20037;-69
2022/09/09 01:20:21;;;;;;;15.57;7.18;;;;;;;15.59;100.00;98458.47;4297087;33;20517;-70
2022/09/09 01:23:07;;;;;;;15.27;7.20;;;;;;;15.33;100.00;98430.13;4299650;33;20037;-69
2022/09/09 01:25:43;;;;;;;15.07;7.93;;;;;;;15.55;100.00;98473.69;4280367;33;20111;-73
2022/09/09 01:28:16;;;;;;;10.48;6.62;;;;;;;15.40;100.00;98473.97;4299152;33;20087;-68
2022/09/09 01:30:43;;;;;;;16.10;7.62;;;;;;;15.40;100.00;98454.97;4298039;33;20029;-69
2022/09/09 01:33:15;;;;;;;14.27;7.15;;;;;;;15.45;100.00;98454.88;4282313;33;20419;-69
2022/09/09 01:35:59;;;;;;;14.40;7.47;;;;;;;15.35;100.00;98471.31;4311235;33;20056;-69
2022/09/09 01:38:28;;;;;;;17.15;7.93;;;;;;;15.07;100.00;98482.03;4298681;33;20063;-69
2022/09/09 01:40:55;;;;;;;11.30;7.03;;;;;;;15.07;100.00;98444.06;4298008;33;20124;-68
2022/09/09 01:43:24;;;;;;;12.48;7.50;;;;;;;15.22;100.00;98479.09;4295085;33;20028;-68
2022/09/09 01:45:55;;;;;;;12.45;6.60;;;;;;;15.69;100.00;98498.19;4303378;33;20040;-69
2022/09/09 01:48:23;;;;;;;17.98;8.07;;;;;;;15.60;100.00;98500.78;4317667;33;20048;-68
2022/09/09 01:50:51;;;;;;;15.90;8.27;;;;;;;15.41;100.00;98497.25;4334962;33;20031;-73
2022/09/09 01:53:20;;;;;;;20.08;7.50;;;;;;;15.17;100.00;98470.22;4342103;33;20047;-69
2022/09/09 01:56:02;;;;;;;16.77;9.02;;;;;;;15.17;100.00;98509.00;4341731;33;20179;-69
2022/09/09 02:01:37;;;;;;;23.25;9.55;;;;;;;15.86;100.00;98513.97;4342241;33;20054;-69
2022/09/09 02:04:22;;;;;;;14.68;8.10;;;;;;;15.80;100.00;98504.28;4325800;33;20036;-73
2022/09/09 02:06:55;;;;;;;20.65;9.38;;;;;;;15.54;100.00;98442.25;4325500;33;20058;-69
2022/09/09 02:09:25;;;;;;;24.02;8.88;;;;;;;15.68;100.00;98517.47;4355530;32;20035;-69
2022/09/09 02:12:04;;;;;;;21.17;8.32;;;;;;;15.51;100.00;98507.97;4397831;32;20056;-68
2022/09/09 02:14:39;;;;;;;14.73;7.60;;;;;;;15.87;100.00;98476.75;4385406;32;20031;-68
2022/09/09 02:17:10;;;;;;;15.35;8.60;;;;;;;16.25;100.00;98498.34;4355682;32;20054;-68
2022/09/09 02:19:45;;;;;;;;;;;;;;;15.69;100.00;98497.38;4355995;32;20061;-68
2022/09/09 02:22:13;;;;;;;13.85;8.65;;;;;;;15.26;100.00;98501.81;4357496;32;19957;-68
2022/09/09 02:24:40;;;;;;;20.08;9.32;;;;;;;15.22;100.00;98511.66;4355636;32;20039;-68
2022/09/09 02:27:09;;;;;;;16.35;9.15;;;;;;;15.16;100.00;98490.31;4366051;32;20389;-68
2022/09/09 02:29:44;;;;;;;14.07;9.38;;;;;;;15.41;100.00;98502.69;4368531;32;20069;-69
2022/09/09 02:32:17;;;;;;;15.48;8.95;;;;;;;15.57;100.00;98479.66;4369990;32;20061;-69
2022/09/09 02:34:48;;;;;;;19.12;9.00;;;;;;;15.94;100.00;98472.56;4376576;32;20042;-69
2022/09/09 02:37:20;;;;;;;18.00;9.63;;;;;;;15.82;100.00;98495.84;4380410;32;20043;-68
2022/09/09 02:39:47;;;;;;;16.37;9.70;;;;;;;15.92;100.00;98504.63;4341576;33;20040;-68
2022/09/09 02:42:14;;;;;;;17.30;10.02;;;;;;;15.60;100.00;98473.66;4341219;33;20158;-70
2022/09/09 02:44:42;;;;;;;20.17;9.35;;;;;;;15.48;100.00;98465.16;4343000;33;20036;-68
2022/09/09 02:47:21;;;;;;;20.17;9.40;;;;;;;15.83;100.00;98503.69;4355650;32;20050;-74
2022/09/09 02:50:13;;;;;;;19.55;11.07;;;;;;;15.93;100.00;98508.94;4371348;32;20031;-69
2022/09/09 02:53:08;;;;;;;16.62;10.25;;;;;;;16.10;100.00;98519.25;4362710;32;20061;-72
2022/09/09 02:55:42;;;;;;;23.20;9.13;;;;;;;15.93;100.00;98514.37;4385683;32;20049;-69
2022/09/09 02:58:13;;;;;;;22.92;10.63;;;;;;;15.91;100.00;98510.34;4399731;32;20035;-71
2022/09/09 03:00:40;;;;;;;18.00;10.73;;;;;;;15.88;100.00;98519.09;4401103;32;20172;-69
2022/09/09 03:03:09;;;;;;;25.80;10.88;;;;;;;16.08;100.00;98509.78;4400819;32;20472;-69
2022/09/09 03:05:37;;;;;;;16.65;10.88;;;;;;;16.19;100.00;98478.63;4399539;32;20064;-69
2022/09/09 03:08:05;;;;;;;22.92;10.98;;;;;;;16.31;100.00;98484.37;4395431;32;20038;-69
2022/09/09 03:10:32;;;;;;;26.37;11.63;;;;;;;16.61;100.00;98522.94;4367893;32;20132;-69
2022/09/09 03:12:59;;;;;;;28.60;14.10;;;;;;;16.22;100.00;98515.25;4370978;32;20234;-69
2022/09/09 03:15:30;;;;;;;27.45;12.90;;;;;;;15.95;100.00;98517.59;4370994;32;20369;-69
2022/09/09 03:17:58;;;;;;;25.02;12.35;;;;;;;15.31;100.00;98500.13;4371018;32;20031;-69
2022/09/09 03:20:27;;;;;;;24.45;11.45;;;;;;;15.80;100.00;98517.88;4384193;32;20035;-70
2022/09/09 03:22:55;;;;;;;28.50;12.75;;;;;;;16.28;100.00;98514.84;4385452;32;20051;-69
2022/09/09 03:25:23;;;;;;;36.80;13.07;;;;;;;16.35;100.00;98481.84;4385633;32;20035;-69
2022/09/09 03:27:54;;;;;;;25.65;12.80;;;;;;;16.58;100.00;98512.66;4399677;32;20433;-69
2022/09/09 03:30:22;;;;;;;23.40;12.80;;;;;;;16.01;100.00;98457.78;4399097;32;20043;-73
2022/09/09 03:32:49;;;;;;;32.70;13.13;;;;;;;16.24;100.00;98462.25;4401111;32;20176;-68
2022/09/09 03:35:16;;;;;;;25.67;13.30;;;;;;;16.11;100.00;98449.44;4395884;32;20090;-69
2022/09/09 03:37:43;;;;;;;20.45;13.13;;;;;;;16.54;100.00;98506.22;4385711;32;20035;-70
2022/09/09 03:40:11;;;;;;;25.10;11.93;;;;;;;16.42;100.00;98487.69;4384744;32;20035;-69
2022/09/09 03:42:37;;;;;;;26.55;12.73;;;;;;;16.49;100.00;98523.41;4398944;32;20413;-69
2022/09/09 03:45:09;;;;;;;21.25;13.02;;;;;;;16.05;100.00;98515.81;4406095;32;20038;-69
2022/09/09 03:47:36;;;;;;;23.77;13.48;;;;;;;16.60;100.00;98515.88;4436269;32;20021;-69
2022/09/09 03:50:08;;;;;;;21.73;13.43;;;;;;;16.47;100.00;98505.81;4423430;32;20038;-69
2022/09/09 03:52:40;;;;;;;28.10;13.95;;;;;;;16.53;100.00;98499.19;4417009;32;20035;-74
2022/09/09 03:55:08;;;;;;;29.55;13.25;;;;;;;16.83;100.00;98532.28;4415523;32;20799;-69
2022/09/09 03:57:35;;;;;;;20.45;12.75;;;;;;;16.65;100.00;98529.34;4384140;32;20032;-70
2022/09/09 04:00:06;;;;;;;28.45;13.05;;;;;;;16.94;100.00;98528.28;4385236;32;20034;-69
2022/09/09 04:02:43;;;;;;;25.62;13.20;;;;;;;17.15;100.00;98531.38;4384759;32;20193;-69
2022/09/09 04:05:10;;;;;;;30.40;13.62;;;;;;;16.87;100.00;98528.69;4384430;32;20035;-69
2022/09/09 04:07:38;;;;;;;26.20;13.75;;;;;;;17.06;100.00;98520.41;4383943;32;20061;-69
2022/09/09 04:10:05;;;;;;;20.70;13.48;;;;;;;16.71;100.00;98495.53;4386343;32;20057;-69
2022/09/09 04:12:32;;;;;;;26.70;13.38;;;;;;;16.97;100.00;98535.03;4383100;32;20061;-69
2022/09/09 04:14:58;;;;;;;27.95;13.32;;;;;;;16.87;100.00;98528.69;4385216;32;20074;-69
2022/09/09 04:17:25;;;;;;;21.25;13.73;;;;;;;16.92;100.00;98538.66;4355027;32;20032;-69
2022/09/09 04:19:58;;;;;;;23.30;13.35;;;;;;;16.73;100.00;98546.09;4359361;32;20072;-69
2022/09/09 04:22:24;;;;;;;28.35;12.48;;;;;;;16.75;100.00;98505.81;4393440;32;20079;-69
2022/09/09 04:24:51;;;;;;;22.10;12.45;;;;;;;16.94;100.00;98552.75;4399608;32;20132;-69
2022/09/09 04:27:18;;;;;;;23.85;14.32;;;;;;;17.04;100.00;98547.09;4400135;32;20031;-69
2022/09/09 04:29:45;;;;;;;29.23;13.48;;;;;;;16.61;100.00;98465.88;4400389;32;20027;-69
2022/09/09 04:32:12;;;;;;;24.00;13.60;;;;;;;16.87;100.00;98514.28;4400468;32;20054;-69
2022/09/09 04:34:41;;;;;;;30.95;14.13;;;;;;;16.48;100.00;98491.09;4398643;32;20027;-69
2022/09/09 04:37:09;;;;;;;32.05;14.05;;;;;;;16.91;100.00;98520.72;4415506;32;20068;-69
2022/09/09 04:39:38;;;;;;;32.53;14.35;;;;;;;16.75;100.00;98479.41;4415462;32;20047;-69
2022/09/09 04:42:05;;;;;;;31.15;15.05;;;;;;;17.17;100.00;98518.28;4415167;32;20042;-68
2022/09/09 04:44:31;;;;;;;32.40;14.35;;;;;;;17.35;100.00;98546.44;4413913;32;20100;-74
2022/09/09 04:47:06;;;;;;;52.78;15.43;;;;;;;17.18;100.00;98514.47;4444119;32;20063;-68
2022/09/09 04:49:32;;;;;;;31.90;14.27;;;;;;;17.27;100.00;98544.44;4462232;32;20063;-69
2022/09/09 04:51:58;;;;;;;36.13;16.98;;;;;;;17.22;100.00;98515.44;4430695;32;20107;-69
2022/09/09 04:54:25;;;;;;;30.02;15.45;;;;;;;17.38;100.00;98540.38;4428781;32;20440;-73
2022/09/09 04:56:51;;;;;;;52.28;15.90;;;;;;;17.31;100.00;98517.41;4430704;32;20089;-69
2022/09/09 04:59:18;;;;;;;48.60;16.35;;;;;;;17.34;100.00;98555.72;4426822;32;20060;-69
2022/09/09 05:01:45;;;;;;;43.90;16.02;;;;;;;17.49;100.00;98551.06;4422614;32;20041;-69
2022/09/09 05:04:12;;;;;;;84.15;17.40;;;;;;;17.63;100.00;98557.25;4423912;32;20051;-68
2022/09/09 05:06:39;;;;;;;57.05;15.27;;;;;;;17.43;100.00;98558.53;4430980;32;20114;-74
2022/09/09 05:09:06;;;;;;;56.60;15.75;;;;;;;17.36;100.00;98555.41;4433082;32;20061;-69
2022/09/09 05:11:36;;;;;;;94.10;16.08;;;;;;;17.41;100.00;98556.09;4432837;32;20046;-70
2022/09/09 05:14:04;;;;;;;108.17;17.20;;;;;;;17.58;100.00;98557.34;4433437;32;20363;-69
2022/09/09 05:16:31;;;;;;;113.53;16.87;;;;;;;17.52;100.00;98562.13;4433109;32;20367;-74
2022/09/09 05:18:58;;;;;;;170.45;17.02;;;;;;;17.10;100.00;98506.19;4430607;32;20438;-69
2022/09/09 05:21:26;;;;;;;171.27;19.90;;;;;;;17.47;100.00;98554.09;4432864;32;20049;-68
2022/09/09 05:24:00;;;;;;;191.82;17.87;;;;;;;17.55;100.00;98566.13;4433514;32;20030;-69
2022/09/09 05:26:26;;;;;;;167.77;21.30;;;;;;;17.37;100.00;98565.97;4440153;32;20033;-71
2022/09/09 05:28:53;;;;;;;156.80;19.80;;;;;;;17.01;100.00;98539.56;4447781;32;20051;-69
2022/09/09 05:31:19;;;;;;;106.50;16.35;;;;;;;17.06;100.00;98531.28;4448562;32;20057;-69
2022/09/09 05:33:49;;;;;;;147.23;17.73;;;;;;;17.39;100.00;98560.22;4445842;32;20072;-69
2022/09/09 05:36:20;;;;;;;160.60;20.25;;;;;;;17.42;100.00;98557.72;4439118;32;20059;-68
2022/09/09 05:38:49;;;;;;;139.45;19.33;;;;;;;17.83;100.00;98576.94;4440023;32;20090;-68
2022/09/09 05:41:17;;;;;;;113.32;17.40;;;;;;;17.77;100.00;98568.91;4448248;32;20064;-68
2022/09/09 05:43:44;;;;;;;120.97;19.25;;;;;;;17.80;100.00;98572.91;4448386;32;20102;-68
2022/09/09 05:46:14;;;;;;;153.48;18.37;;;;;;;17.74;100.00;98547.75;4435282;32;20080;-70
2022/09/09 05:48:42;;;;;;;143.37;20.05;;;;;;;17.89;100.00;98576.53;4414365;32;20034;-72
2022/09/09 05:51:17;;;;;;;103.40;17.95;;;;;;;18.02;100.00;98584.97;4415917;32;20031;-72
2022/09/09 05:53:45;;;;;;;155.32;19.67;;;;;;;17.96;100.00;98544.22;4415321;32;20050;-72
2022/09/09 05:56:23;;;;;;;142.98;19.87;;;;;;;18.21;100.00;98580.12;4415206;32;20111;-71
2022/09/09 05:58:51;;;;;;;142.05;18.37;;;;;;;18.28;100.00;98579.69;4415365;32;20085;-71
2022/09/09 06:01:45;;;;;;;136.50;19.48;;;;;;;18.18;100.00;98582.69;4384643;32;20039;-71
2022/09/09 06:04:15;;;;;;;148.75;18.80;;;;;;;18.21;100.00;98592.97;4381815;32;20319;-72
2022/09/09 06:06:41;;;;;;;113.88;17.87;;;;;;;18.16;100.00;98588.44;4388564;32;20070;-69
2022/09/09 06:09:10;;;;;;;81.03;19.27;;;;;;;18.00;100.00;98551.78;4401979;32;20027;-72
2022/09/09 06:11:39;;;;;;;87.03;19.85;;;;;;;18.03;100.00;98553.87;4400775;32;20072;-73
2022/09/09 06:14:05;;;;;;;77.35;19.48;;;;;;;18.44;100.00;98602.69;4400469;32;20346;-71
2022/09/09 06:16:33;;;;;;;116.82;18.37;;;;;;;18.43;100.00;98595.66;4401344;32;20315;-69
2022/09/09 06:19:03;;;;;;;80.30;16.92;;;;;;;18.30;100.00;98601.97;4359406;32;20377;-70
2022/09/09 06:21:36;;;;;;;172.60;24.48;;;;;;;18.00;100.00;98570.84;4371859;32;20039;-71
2022/09/09 06:24:05;;;;;;;72.12;18.25;;;;;;;18.34;100.00;98597.50;4351022;32;20040;-72
2022/09/09 06:26:34;;;;;;;124.32;19.20;;;;;;;18.28;100.00;98566.06;4341957;33;20390;-72
2022/09/09 06:29:03;;;;;;;90.07;16.50;;;;;;;18.47;100.00;98604.78;4327224;33;20037;-71
2022/09/09 06:31:33;;;;;;;105.80;17.87;;;;;;;18.41;100.00;98603.34;4312397;33;20077;-71
2022/09/09 06:34:01;;;;;;;81.90;18.12;;;;;;;18.43;100.00;98606.56;4296041;33;20442;-72
2022/09/09 06:36:31;;;;;;;74.78;17.37;;;;;;;18.56;100.00;98593.16;4283053;33;20399;-70
2022/09/09 06:38:59;;;;;;;161.27;18.65;;;;;;;18.44;100.00;98569.97;4291340;33;20071;-72
2022/09/09 06:41:27;;;;;;;49.03;18.95;;;;;;;18.08;100.00;98532.78;4297912;33;20055;-72
2022/09/09 06:43:55;;;;;;;35.25;17.05;;;;;;;18.51;100.00;98616.69;4296191;33;20033;-71
2022/09/09 06:46:32;;;;;;;66.28;16.90;;;;;;;18.61;100.00;98601.19;4297988;33;20056;-70
2022/09/09 06:49:00;;;;;;;62.05;16.40;;;;;;;18.69;100.00;98614.06;4297893;33;20030;-70
2022/09/09 06:51:33;;;;;;;54.30;18.02;;;;;;;18.03;100.00;98535.63;4297451;33;20045;-73
2022/09/09 06:54:02;;;;;;;40.83;15.55;;;;;;;18.55;100.00;98605.16;4308005;33;20354;-72
2022/09/09 06:56:35;;;;;;;39.60;15.63;;;;;;;18.47;100.00;98588.44;4325077;33;20067;-73
2022/09/09 06:59:09;;;;;;;40.38;15.40;;;;;;;18.73;100.00;98615.06;4355847;32;20503;-71
2022/09/09 07:01:41;;;;;;;34.83;14.93;;;;;;;18.68;100.00;98585.19;4354516;32;20053;-71
2022/09/09 07:04:09;;;;;;;33.05;15.27;;;;;;;18.85;100.00;98620.72;4356183;32;20050;-72
2022/09/09 07:06:38;;;;;;;31.23;15.20;;;;;;;18.54;100.00;98589.91;4370976;32;20425;-70
2022/09/09 07:09:08;;;;;;;29.12;13.43;;;;;;;18.77;100.00;98594.19;4355506;32;20057;-73
2022/09/09 07:11:43;;;;;;;32.22;13.62;;;;;;;18.79;100.00;98618.44;4358020;32;20057;-70
2022/09/09 07:14:14;;;;;;;25.50;14.25;;;;;;;18.84;100.00;98567.31;4341115;33;20035;-71
2022/09/09 07:16:42;;;;;;;29.95;15.20;;;;;;;19.11;100.00;98632.88;4311675;33;20029;-71
2022/09/09 07:19:10;;;;;;;27.70;14.30;;;;;;;18.97;100.00;98597.50;4308910;33;20029;-74
2022/09/09 07:21:40;;;;;;;24.40;14.25;;;;;;;19.06;100.00;98639.28;4298992;33;20053;-70
2022/09/09 07:24:10;;;;;;;28.50;14.30;;;;;;;19.29;100.00;98636.44;4311757;33;20029;-71
2022/09/09 07:26:38;;;;;;;22.90;13.68;;;;;;;19.22;100.00;98634.97;4311316;33;20111;-71
2022/09/09 07:29:06;;;;;;;31.62;13.48;;;;;;;19.15;100.00;98596.44;4308241;33;20040;-74
2022/09/09 07:31:39;;;;;;;21.85;12.70;;;;;;;19.16;100.00;98578.97;4297161;33;20276;-71
2022/09/09 07:34:07;;;;;;;20.73;11.98;;;;;;;19.39;100.00;98633.44;4298260;33;20040;-70
2022/09/09 07:36:37;;;;;;;18.45;11.63;;;;;;;19.24;100.00;98613.66;4326317;33;20058;-72
2022/09/09 07:39:10;;;;;;;21.30;12.02;;;;;;;19.59;100.00;98629.28;4326681;33;20062;-77
2022/09/09 07:41:43;;;;;;;20.50;12.15;;;;;;;19.76;100.00;98628.53;4340406;33;20048;-72
2022/09/09 07:44:13;;;;;;;22.92;12.48;;;;;;;19.33;100.00;98582.84;4340426;33;20032;-71
2022/09/09 07:46:40;;;;;;;20.12;13.55;;;;;;;19.98;100.00;98648.66;4337801;32;20044;-70
2022/09/09 07:49:09;;;;;;;19.50;12.02;;;;;;;19.89;100.00;98651.37;4369366;32;20027;-74
2022/09/09 07:51:38;;;;;;;24.98;12.90;;;;;;;19.71;100.00;98613.09;4340208;33;20222;-72
2022/09/09 07:54:09;;;;;;;18.95;11.05;;;;;;;19.96;100.00;98644.31;4341168;33;20048;-72
2022/09/09 07:56:37;;;;;;;14.25;10.23;;;;;;;20.03;100.00;98643.03;4340871;33;20036;-72
2022/09/09 07:59:06;;;;;;;16.87;10.90;;;;;;;19.80;100.00;98618.59;4338842;33;20036;-72
2022/09/09 08:01:38;;;;;;;15.18;9.77;;;;;;;20.08;100.00;98648.31;4340904;33;20161;-72
2022/09/09 08:04:15;;;;;;;18.80;10.35;;;;;;;20.21;100.00;98655.53;4309582;33;20459;-72
2022/09/09 08:06:46;;;;;;;24.70;11.93;;;;;;;20.20;100.00;98662.16;4305403;33;20056;-75
2022/09/09 08:09:13;;;;;;;16.33;11.07;;;;;;;20.19;100.00;98667.94;4323700;33;20036;-69
2022/09/09 08:11:42;;;;;;;16.83;11.00;;;;;;;20.25;100.00;98672.13;4326983;33;20062;-72
2022/09/09 08:14:09;;;;;;;25.05;11.35;;;;;;;20.35;100.00;98677.25;4340474;33;20453;-72
2022/09/09 08:16:40;;;;;;;19.65;11.73;;;;;;;20.45;100.00;98676.09;4339974;33;20065;-72
2022/09/09 08:19:07;;;;;;;20.23;11.45;;;;;;;20.45;100.00;98676.09;4355009;33;20425;-71
2022/09/09 08:21:37;;;;;;;18.33;11.10;;;;;;;20.49;100.00;98677.06;4340987;33;20422;-72
2022/09/09 08:24:04;;;;;;;22.55;10.82;;;;;;;20.44;100.00;98679.97;4339118;33;20032;-72
2022/09/09 08:26:34;;;;;;;14.55;9.18;;;;;;;20.15;100.00;98645.88;4340978;33;20097;-72
2022/09/09 08:29:09;;;;;;;14.27;8.40;;;;;;;20.47;100.00;98646.50;4340350;33;20446;-69
2022/09/09 08:31:40;;;;;;;14.43;8.80;;;;;;;20.36;100.00;98642.50;4309789;33;20062;-71
2022/09/09 08:34:07;;;;;;;10.95;7.82;;;;;;;20.61;100.00;98685.41;4311220;33;20447;-70
2022/09/09 08:36:42;;;;;;;11.73;8.77;;;;;;;20.59;100.00;98686.88;4309041;33;20124;-71
2022/09/09 08:39:13;;;;;;;11.32;8.05;;;;;;;20.65;100.00;98680.94;4310236;33;20033;-71
2022/09/09 08:42:17;;;;;;;9.65;6.97;;;;;;;20.76;100.00;98681.38;4306350;33;20040;-71
2022/09/09 08:45:05;;;;;;;11.15;7.60;;;;;;;20.84;100.00;98687.97;4312654;33;20062;-71
2022/09/09 08:47:47;;;;;;;12.52;6.93;;;;;;;20.73;100.00;98651.16;4297005;33;20425;-72
2022/09/09 08:50:31;;;;;;;7.47;6.45;;;;;;;20.79;100.00;98679.91;4285019;33;20075;-73
2022/09/09 08:53:16;;;;;;;7.50;5.80;;;;;;;20.58;100.00;98658.72;4282442;33;20045;-72
2022/09/09 08:55:49;;;;;;;8.65;6.78;;;;;;;20.58;100.00;98655.16;4284404;33;20488;-72
2022/09/09 08:58:21;;;;;;;10.15;6.97;;;;;;;21.09;100.00;98689.00;4293644;33;20036;-72
2022/09/09 09:01:09;;;;;;;7.28;6.57;;;;;;;21.20;100.00;98690.25;4285351;33;20071;-77
2022/09/09 09:03:41;;;;;;;10.73;7.10;;;;;;;21.49;100.00;98696.09;4298793;33;20059;-73
2022/09/09 09:06:30;;;;;;;12.57;7.80;;;;;;;21.35;100.00;98694.38;4298806;33;20078;-73
2022/09/09 09:08:57;;;;;;;13.02;9.15;;;;;;;21.22;100.00;98693.47;4312876;33;20283;-74
2022/09/09 09:11:24;;;;;;;12.52;8.43;;;;;;;20.77;100.00;98685.72;4311675;33;20040;-72
2022/09/09 09:13:57;;;;;;;12.85;9.02;;;;;;;20.80;100.00;98676.84;4313851;33;20028;-72
2022/09/09 09:16:33;;;;;;;13.70;7.30;;;;;;;20.77;100.00;98654.81;4297845;33;20051;-72
2022/09/09 09:19:02;;;;;;;8.60;6.97;;;;;;;21.14;100.00;98704.44;4288954;33;20037;-71
2022/09/09 09:21:43;;;;;;;11.32;6.35;;;;;;;21.15;100.00;98708.78;4283799;33;20056;-73
2022/09/09 09:24:19;;;;;;;8.02;5.10;;;;;;;21.48;100.00;98710.91;4281905;33;20037;-73
2022/09/09 09:26:46;;;;;;;5.85;4.60;;;;;;;21.53;100.00;98708.00;4312124;33;20037;-73
2022/09/09 09:29:19;;;;;;;5.25;4.25;;;;;;;21.07;100.00;98685.00;4328139;33;20374;-72
2022/09/09 09:31:55;;;;;;;7.50;5.12;;;;;;;21.29;100.00;98701.16;4327891;33;20032;-72
2022/09/09 09:34:24;;;;;;;6.18;4.55;;;;;;;21.46;100.00;98711.25;4320718;33;20500;-73
2022/09/09 09:36:56;;;;;;;7.93;4.93;;;;;;;21.55;100.00;98700.25;4332072;33;20052;-72
2022/09/09 09:39:31;;;;;;;4.85;4.35;;;;;;;21.83;100.00;98710.75;4353616;32;20035;-72
2022/09/09 09:42:15;;;;;;;12.57;4.95;;;;;;;21.96;100.00;98695.97;4339106;33;20504;-73
2022/09/09 09:44:42;;;;;;;9.88;5.72;;;;;;;21.91;100.00;98674.25;4342350;33;20115;-72
2022/09/09 09:47:19;;;;;;;6.22;5.35;;;;;;;21.68;100.00;98669.06;4340873;33;20058;-72
2022/09/09 09:49:53;;;;;;;7.57;5.55;;;;;;;21.99;100.00;98702.75;4345640;32;20040;-72
2022/09/09 09:52:32;;;;;;;11.50;6.97;;;;;;;22.02;100.00;98702.88;4355982;32;20047;-72
2022/09/09 09:55:02;;;;;;;9.90;7.30;;;;;;;21.98;100.00;98707.41;4341944;33;20098;-72
2022/09/09 09:57:31;;;;;;;12.82;7.20;;;;;;;21.75;100.00;98704.97;4340488;33;20062;-73
2022/09/09 10:00:04;;;;;;;11.90;7.00;;;;;;;21.87;100.00;98709.72;4341929;33;20370;-73
2022/09/09 10:02:43;;;;;;;9.43;7.22;;;;;;;21.92;100.00;98716.97;4342279;33;20106;-74
2022/09/09 10:05:16;;;;;;;8.82;7.15;;;;;;;21.45;100.00;98714.31;4350574;32;20073;-72
2022/09/09 10:07:47;;;;;;;8.75;6.68;;;;;;;21.25;100.00;98724.06;4341969;33;20048;-73
2022/09/09 10:10:35;;;;;;;8.05;5.90;;;;;;;21.36;100.00;98726.13;4347206;32;20448;-72
2022/09/09 10:13:21;;;;;;;9.18;6.10;;;;;;;21.54;100.00;98726.84;4356919;32;20297;-72
2022/09/09 10:15:51;;;;;;;7.97;5.60;;;;;;;21.32;100.00;98696.97;4312853;33;20054;-71
2022/09/09 10:18:17;;;;;;;6.80;4.47;;;;;;;21.49;100.00;98726.22;4309584;33;20059;-74
2022/09/09 10:21:10;;;;;;;8.90;5.82;;;;;;;21.52;100.00;98695.44;4310778;33;20025;-71
2022/09/09 10:24:07;;;;;;;7.03;5.75;;;;;;;21.91;100.00;98729.06;4311935;33;20181;-73
2022/09/09 10:26:48;;;;;;;9.85;5.78;;;;;;;22.29;100.00;98733.63;4343299;32;20356;-72
2022/09/09 10:29:16;;;;;;;;;;;;;;;22.58;100.00;98741.00;4356706;32;20032;-72
2022/09/09 10:31:57;;;;;;;6.03;5.20;;;;;;;22.73;100.00;98742.31;4325179;33;19977;-73
2022/09/09 10:34:36;;;;;;;6.55;5.50;;;;;;;22.61;100.00;98745.03;4339684;33;20184;-73
2022/09/09 10:37:12;;;;;;;8.23;5.40;;;;;;;22.45;100.00;98744.84;4339159;33;20059;-72
2022/09/09 10:39:42;;;;;;;6.65;4.78;;;;;;;22.35;100.00;98751.50;4352987;33;20044;-72
2022/09/09 10:42:16;;;;;;;10.98;5.45;;;;;;;22.25;100.00;98743.66;4358670;32;20053;-72
2022/09/09 10:44:59;;;;;;;9.13;5.03;;;;;;;22.12;100.00;98718.91;4369462;32;20079;-77
2022/09/09 10:47:29;;;;;;;6.87;5.28;;;;;;;22.45;100.00;98748.38;4345638;32;20393;-73
2022/09/09 10:50:26;;;;;;;5.93;4.78;;;;;;;22.49;100.00;98752.03;4372703;32;20042;-72
2022/09/09 10:53:01;;;;;;;6.65;4.60;;;;;;;22.66;100.00;98753.03;4386729;32;20027;-72
2022/09/09 10:55:38;;;;;;;6.70;5.60;;;;;;;22.44;100.00;98724.81;4370188;32;20385;-71
2022/09/09 10:58:08;;;;;;;6.18;4.87;;;;;;;22.73;100.00;98747.00;4369518;32;20477;-73
2022/09/09 11:00:46;;;;;;;6.12;4.95;;;;;;;22.60;100.00;98759.88;4370316;32;20057;-72
2022/09/09 11:03:40;;;;;;;7.93;5.32;;;;;;;22.81;100.00;98757.88;4345051;32;20059;-73
2022/09/09 11:06:17;;;;;;;16.52;7.22;;;;;;;23.05;100.00;98753.59;4338448;33;20070;-72
2022/09/09 11:08:45;;;;;;;14.57;4.65;;;;;;;23.50;100.00;98762.97;4326798;33;20467;-73
2022/09/09 11:11:39;;;;;;;10.70;4.55;;;;;;;23.33;100.00;98731.03;4331239;33;20040;-72
2022/09/09 11:14:26;;;;;;;4.15;3.45;;;;;;;24.17;100.00;98774.53;4341410;33;20027;-73
2022/09/09 11:16:58;;;;;;;4.53;4.10;;;;;;;24.51;100.00;98772.41;4308486;33;20124;-73
2022/09/09 11:19:34;;;;;;;8.77;4.60;;;;;;;24.29;100.00;98769.00;4312120;33;20419;-72
2022/09/09 11:22:04;;;;;;;11.95;6.80;;;;;;;24.25;100.00;98748.03;4337846;33;20045;-71
2022/09/09 11:24:41;;;;;;;5.03;3.90;;;;;;;24.48;100.00;98751.09;4339710;33;20043;-76
2022/09/09 11:27:25;;;;;;;6.78;4.80;;;;;;;25.08;100.00;98761.38;4351180;32;20043;-72
2022/09/09 11:30:34;;;;;;;10.77;5.22;;;;;;;25.21;100.00;98771.19;4355961;32;20036;-72
2022/09/09 11:33:16;;;;;;;4.53;3.67;;;;;;;25.53;100.00;98774.00;4356001;32;20040;-71
2022/09/09 11:36:00;;;;;;;55.60;27.02;;;;;;;25.54;100.00;98773.63;4339692;33;20068;-72
2022/09/09 11:38:30;;;;;;;3.72;3.42;;;;;;;25.97;100.00;98729.72;4325553;33;20077;-71
2022/09/09 11:40:59;;;;;;;7.72;4.70;;;;;;;26.28;97.64;98761.16;4324273;33;20050;-73
2022/09/09 11:43:38;;;;;;;7.47;3.83;;;;;;;26.28;89.73;98744.59;4310368;33;20469;-70
2022/09/09 11:46:07;;;;;;;4.97;3.55;;;;;;;26.15;100.00;98743.94;4303241;33;20378;-70